Ana Sayfa
METAR-TAF:

METAR-TAF

Havaalanları :

Palestine Municipal Airport

Palestine, Teksas, Amerika Birleşik Devletleri

Enlem: 31-46-46N, Boylam: 095-42-22W, yükseklik: 129 m

Güncel hava durumu gözlemi

Rapor saat 12:35 UTC de 20 dakika önce yapıldı.
Sakin rüzgar
Sıcaklık 23°C
Nem 100%
Basınç 1023 hPa
Görüş mesafesi: 0.4 km
100 ft yükseklikte çok bulutlu
sis

METAR: KPSN 271235Z AUTO 00000KT 1/4SM FG OVC001 23/23 A3020 RMK AO2 T02350235

Saat: 07:55 (12:55 UTC)


TAF: eksik

4.000'den fazla havaalanı için hava durumu gözlemleri ve tahminleri (METAR ve TAF raporları).

Kullanılabilir istasyonlar harita üzerinde sarı ve kırmızı noktalarla gösterilir.

İstasyonun adını görmek için fareyi noktanın üzerinde gezdirin.

Sonrasında hava gözlem ve tahminlerini görmek için tıklayın.

Haritayı değiştirmek için: yaklaştırmak için siyah artı işaretli yeşil düğmeye ve uzaklaştırmak için de eksi işaretli düğmeye hızla tıklayın; bitişik haritalar için yeşil okları kullanın.


METAR-TAF: